Saint Inigoes, Maryland
Current Conditions -  °F | °C
As of 2:53 PM on Wednesday 26 Nov 2014 (Local Time) from KNUI Reporting Station
Light Rain Light Rain  
Wind Chill: 34°   Ceiling: 800
Heat Index: 40°   Visibility: 10mi
Dew Point: 36°   Wind: 8mph
Humidity: 86%   Direction: 330°NNW
Pressure: 29.81"   Gusts: 16mph
Location:  38.17°N, 76.41°W
Report Text: KNUI 261953Z AUTO 33007G14KT 10SM -RA OVC008 04/02 A2981 RMK AO2 CIG 007V012 PRESRR SLP093 P0002 T00440022
Loading
Personal Weather Stations






























Interactive Weather Map New forecast layout! Learn more

10-Day Weather Forecast

Advertisements
Track Severe Weather on mobile